createdAt,value
2023-03-29T00:00:36.503Z,31.1
2023-03-29T00:06:39.550Z,31.1
2023-03-29T00:12:15.384Z,31.1
2023-03-29T00:18:07.324Z,31.1
2023-03-29T00:23:59.034Z,31.1
2023-03-29T00:29:35.597Z,31
2023-03-29T00:35:27.762Z,31
2023-03-29T00:41:04.392Z,31
2023-03-29T00:46:25.170Z,31
2023-03-29T00:52:01.385Z,30.9
2023-03-29T00:57:37.962Z,30.9
2023-03-29T01:03:14.764Z,30.9
2023-03-29T01:08:35.789Z,30.9
2023-03-29T01:14:11.476Z,30.9
2023-03-29T01:19:47.931Z,30.9
2023-03-29T01:25:39.063Z,30.9
2023-03-29T01:31:30.569Z,30.8
2023-03-29T01:37:22.579Z,30.8
2023-03-29T01:48:19.293Z,30.8
2023-03-29T01:54:11.514Z,30.8
2023-03-29T01:59:47.957Z,30.8
2023-03-29T02:05:40.236Z,30.7
2023-03-29T02:11:32.070Z,30.7
2023-03-29T02:17:23.733Z,30.7
2023-03-29T02:23:00.332Z,30.6
2023-03-29T02:28:36.633Z,30.6
2023-03-29T02:34:28.987Z,30.6
2023-03-29T02:40:05.069Z,30.6
2023-03-29T02:51:04.823Z,30.6
2023-03-29T02:56:56.563Z,30.5
2023-03-29T03:02:33.347Z,30.5
2023-03-29T03:08:24.636Z,30.5
2023-03-29T03:14:15.782Z,30.4
2023-03-29T03:31:24.378Z,30.4
2023-03-29T03:37:16.560Z,30.4
2023-03-29T03:42:41.194Z,30.4
2023-03-29T03:48:17.867Z,30.4
2023-03-29T03:53:38.801Z,30.3
2023-03-29T03:59:30.520Z,30.3
2023-03-29T04:05:07.982Z,30.3
2023-03-29T04:10:59.939Z,30.3
2023-03-29T04:16:36.999Z,30.3
2023-03-29T04:22:30.285Z,30.3
2023-03-29T04:28:22.332Z,30.2
2023-03-29T04:34:16.957Z,30.2
2023-03-29T04:39:54.603Z,30.2
2023-03-29T04:45:47.041Z,30.2
2023-03-29T04:51:23.510Z,30.1
2023-03-29T04:57:13.936Z,30.1
2023-03-29T05:03:08.635Z,30.1
2023-03-29T05:09:00.200Z,30.1
2023-03-29T05:14:54.367Z,30.1
2023-03-29T05:20:47.010Z,30.1
2023-03-29T05:26:38.236Z,30
2023-03-29T05:32:13.792Z,30
2023-03-29T05:37:50.141Z,30
2023-03-29T05:43:18.515Z,29.9
2023-03-29T05:48:55.300Z,29.9
2023-03-29T05:54:47.588Z,29.9
2023-03-29T06:00:39.765Z,29.9
2023-03-29T06:06:44.332Z,29.9
2023-03-29T06:12:36.207Z,29.9
2023-03-29T06:18:28.555Z,29.8
2023-03-29T06:24:20.415Z,29.8
2023-03-29T06:30:14.437Z,29.8
2023-03-29T06:36:06.986Z,29.8
2023-03-29T06:41:28.299Z,29.8
2023-03-29T06:47:32.315Z,29.8
2023-03-29T06:53:08.030Z,29.7
2023-03-29T06:59:00.029Z,29.7
2023-03-29T07:09:58.601Z,29.7
2023-03-29T07:15:52.274Z,29.6
2023-03-29T07:21:29.337Z,29.6
2023-03-29T07:27:19.049Z,29.6
2023-03-29T07:33:10.501Z,29.6
2023-03-29T07:38:47.904Z,29.6
2023-03-29T07:44:23.930Z,29.6
2023-03-29T07:50:15.048Z,29.5
2023-03-29T07:56:06.822Z,29.5
2023-03-29T08:02:02.062Z,29.5
2023-03-29T08:07:36.632Z,29.4
2023-03-29T08:13:14.435Z,29.4
2023-03-29T08:18:51.479Z,29.4
2023-03-29T08:24:37.773Z,29.4
2023-03-29T08:30:29.765Z,29.4
2023-03-29T08:36:22.600Z,29.4
2023-03-29T08:41:58.767Z,29.3
2023-03-29T08:47:41.193Z,29.3
2023-03-29T08:52:46.579Z,29.3
2023-03-29T08:58:07.365Z,29.3
2023-03-29T09:03:44.250Z,29.3
2023-03-29T09:09:06.105Z,29.3
2023-03-29T09:14:42.860Z,29.3
2023-03-29T09:20:20.612Z,29.3
2023-03-29T09:26:09.425Z,29.2
2023-03-29T09:31:15.156Z,29.2
2023-03-29T09:36:52.516Z,29.2
2023-03-29T09:42:43.821Z,29.1
2023-03-29T09:48:29.440Z,29.1
2023-03-29T09:54:18.526Z,29.1
2023-03-29T09:59:55.471Z,29.1
2023-03-29T10:05:32.809Z,29.1
2023-03-29T10:11:11.999Z,29.1
2023-03-29T10:16:59.434Z,29
2023-03-29T10:22:39.135Z,29
2023-03-29T10:28:01.889Z,29
2023-03-29T10:33:38.691Z,29
2023-03-29T10:39:14.578Z,28.9
2023-03-29T10:44:35.754Z,28.9
2023-03-29T10:50:13.554Z,28.9
2023-03-29T10:55:48.741Z,28.9
2023-03-29T11:01:10.139Z,28.9
2023-03-29T11:06:47.499Z,28.9
2023-03-29T11:12:33.587Z,28.9
2023-03-29T11:18:12.300Z,28.8
2023-03-29T11:23:18.165Z,28.8
2023-03-29T11:28:39.115Z,28.8
2023-03-29T11:34:16.469Z,28.8
2023-03-29T11:39:37.852Z,28.8
2023-03-29T11:45:13.734Z,28.8
2023-03-29T11:50:53.010Z,28.7
2023-03-29T11:56:13.659Z,28.7
2023-03-29T12:01:50.944Z,28.7
2023-03-29T12:07:29.508Z,28.7
2023-03-29T12:13:08.551Z,28.6
2023-03-29T12:18:29.115Z,28.6
2023-03-29T12:24:08.834Z,28.6
2023-03-29T12:29:45.405Z,28.6
2023-03-29T12:35:06.776Z,28.6
2023-03-29T12:40:59.231Z,28.6
2023-03-29T12:46:51.553Z,28.6
2023-03-29T12:52:43.757Z,28.5
2023-03-29T12:58:36.457Z,28.4
2023-03-29T13:04:14.015Z,28.4
2023-03-29T13:10:05.000Z,28.4
2023-03-29T13:15:56.685Z,28.4
2023-03-29T13:22:03.344Z,28.4
2023-03-29T13:27:54.246Z,28.3
2023-03-29T13:33:46.580Z,28.3
2023-03-29T13:39:23.484Z,28.3
2023-03-29T13:45:14.364Z,28.3
2023-03-29T13:51:22.154Z,28.3
2023-03-29T13:57:17.343Z,28.3
2023-03-29T14:03:08.854Z,28.3
2023-03-29T14:09:00.913Z,28.2
2023-03-29T14:14:59.525Z,28.2
2023-03-29T14:20:51.409Z,28.1
2023-03-29T14:26:43.901Z,28.1
2023-03-29T14:32:20.317Z,28.1
2023-03-29T14:38:12.564Z,28.1
2023-03-29T14:44:05.045Z,28.1
2023-03-29T14:49:56.830Z,28.1
2023-03-29T14:55:47.389Z,28.1
2023-03-29T15:01:40.112Z,27.5
2023-03-29T15:07:35.002Z,27.3
2023-03-29T15:13:35.721Z,27.1
2023-03-29T15:20:45.547Z,26.9
2023-03-29T15:26:21.311Z,26.8
2023-03-29T15:32:28.954Z,26.7
2023-03-29T15:38:30.273Z,26.6
2023-03-29T15:44:26.726Z,26.6
2023-03-29T15:50:18.317Z,26.5
2023-03-29T15:56:21.220Z,26.5
2023-03-29T16:02:13.820Z,26.4
2023-03-29T16:08:04.809Z,26.4
2023-03-29T16:13:43.576Z,26.4
2023-03-29T16:19:36.399Z,26.4
2023-03-29T16:25:27.155Z,26.4
2023-03-29T16:30:47.790Z,26.3
2023-03-29T16:36:41.105Z,26.3
2023-03-29T16:42:32.323Z,26.3
2023-03-29T16:48:09.645Z,26.3
2023-03-29T16:53:30.392Z,26.3
2023-03-29T16:59:21.663Z,26.3
2023-03-29T17:05:16.832Z,26.3
2023-03-29T17:11:09.494Z,26.3
2023-03-29T17:16:45.885Z,26.3
2023-03-29T17:22:38.069Z,26.3
2023-03-29T17:28:29.717Z,26.3
2023-03-29T17:34:21.235Z,26.3
2023-03-29T17:40:14.186Z,26.3
2023-03-29T17:46:06.385Z,26.3
2023-03-29T17:52:01.668Z,26.3
2023-03-29T17:57:53.916Z,26.2
2023-03-29T18:03:47.126Z,26.2
2023-03-29T18:09:37.997Z,26.2
2023-03-29T18:15:30.137Z,26.3
2023-03-29T18:21:22.328Z,26.2
2023-03-29T18:32:34.331Z,26.2
2023-03-29T18:38:30.414Z,26.2
2023-03-29T18:44:21.884Z,26.2
2023-03-29T18:50:14.328Z,26.2
2023-03-29T18:56:08.423Z,26.2
2023-03-29T19:02:01.699Z,26.1
2023-03-29T19:07:39.441Z,26.1
2023-03-29T19:13:00.695Z,26.1
2023-03-29T19:18:52.176Z,26.1
2023-03-29T19:24:44.833Z,26.1
2023-03-29T19:30:36.694Z,26.1
2023-03-29T19:36:14.432Z,26.1
2023-03-29T19:41:50.955Z,26.1
2023-03-29T19:47:43.868Z,26.1
2023-03-29T19:53:41.816Z,26.1
2023-03-29T19:59:34.533Z,26.1
2023-03-29T20:05:12.117Z,26.1
2023-03-29T20:10:50.891Z,26.1
2023-03-29T20:16:58.719Z,26.1
2023-03-29T20:22:35.051Z,26.1
2023-03-29T20:28:26.774Z,26.1
2023-03-29T20:34:18.635Z,26.1
2023-03-29T20:40:14.892Z,26
2023-03-29T20:46:22.818Z,26
2023-03-29T20:51:58.587Z,26
2023-03-29T20:57:51.170Z,26
2023-03-29T21:03:26.654Z,26
2023-03-29T21:09:20.644Z,26
2023-03-29T21:15:15.787Z,26
2023-03-29T21:21:06.947Z,26
2023-03-29T21:26:42.590Z,25.9
2023-03-29T21:32:34.985Z,26
2023-03-29T21:38:27.232Z,25.9
2023-03-29T21:44:18.798Z,25.9
2023-03-29T21:50:11.417Z,25.9
2023-03-29T22:01:23.066Z,25.9
2023-03-29T22:07:26.592Z,25.9
2023-03-29T22:13:18.250Z,25.9
2023-03-29T22:19:10.524Z,25.9
2023-03-29T22:25:02.668Z,25.9
2023-03-29T22:30:54.481Z,25.9
2023-03-29T22:36:47.051Z,25.9
2023-03-29T22:42:39.253Z,25.8
2023-03-29T22:48:31.409Z,25.8
2023-03-29T22:54:22.616Z,25.8
2023-03-29T22:59:59.785Z,25.8
2023-03-29T23:05:36.682Z,25.8
2023-03-29T23:11:27.186Z,25.8
2023-03-29T23:17:18.665Z,25.8
2023-03-29T23:22:53.807Z,25.8
2023-03-29T23:28:47.817Z,25.8
2023-03-29T23:34:39.855Z,25.8
2023-03-29T23:40:15.650Z,25.8
2023-03-29T23:46:08.073Z,25.7
2023-03-29T23:51:59.921Z,25.7
2023-03-29T23:57:50.926Z,25.7
